sensor_id;sensor_type;location;lat;lon;timestamp;noise_LAeq;noise_LA_min;noise_LA_max;noise_LA01;noise_LA95
53702;Laerm;39594;52.194;9.886;2023-03-01T00:02:25;40.63;36.77;42.82;;
53702;Laerm;39594;52.194;9.886;2023-03-01T00:05:00;40.69;36.45;43.49;;
53702;Laerm;39594;52.194;9.886;2023-03-01T00:07:34;40.34;37.32;42.88;;
53702;Laerm;39594;52.194;9.886;2023-03-01T00:09:59;40.20;35.36;42.65;;
53702;Laerm;39594;52.194;9.886;2023-03-01T00:12:31;40.07;36.20;42.53;;
53702;Laerm;39594;52.194;9.886;2023-03-01T00:14:59;54.26;36.45;73.90;;
53702;Laerm;39594;52.194;9.886;2023-03-01T00:17:24;40.53;36.91;43.04;;
53702;Laerm;39594;52.194;9.886;2023-03-01T00:19:52;50.03;37.32;67.19;;
53702;Laerm;39594;52.194;9.886;2023-03-01T00:22:20;40.04;36.45;42.65;;
53702;Laerm;39594;52.194;9.886;2023-03-01T00:24:48;40.34;36.45;42.58;;
53702;Laerm;39594;52.194;9.886;2023-03-01T00:27:13;40.49;37.32;42.93;;
53702;Laerm;39594;52.194;9.886;2023-03-01T00:29:39;55.80;37.32;74.14;;
53702;Laerm;39594;52.194;9.886;2023-03-01T00:32:04;40.49;37.12;43.39;;
53702;Laerm;39594;52.194;9.886;2023-03-01T00:34:29;49.86;36.91;66.47;;
53702;Laerm;39594;52.194;9.886;2023-03-01T00:36:55;46.41;35.66;61.76;;
53702;Laerm;39594;52.194;9.886;2023-03-01T00:39:20;40.59;36.91;42.71;;
53702;Laerm;39594;52.194;9.886;2023-03-01T00:41:45;40.41;36.91;42.88;;
53702;Laerm;39594;52.194;9.886;2023-03-01T00:44:11;52.17;36.69;69.71;;
53702;Laerm;39594;52.194;9.886;2023-03-01T00:46:36;40.22;37.12;42.59;;
53702;Laerm;39594;52.194;9.886;2023-03-01T00:49:04;39.95;35.04;42.47;;
53702;Laerm;39594;52.194;9.886;2023-03-01T00:51:29;40.12;35.66;46.30;;
53702;Laerm;39594;52.194;9.886;2023-03-01T00:53:56;40.28;36.69;42.93;;
53702;Laerm;39594;52.194;9.886;2023-03-01T00:56:21;40.12;36.91;42.59;;
53702;Laerm;39594;52.194;9.886;2023-03-01T00:58:47;40.29;36.20;51.27;;
53702;Laerm;39594;52.194;9.886;2023-03-01T01:01:18;40.14;36.20;42.41;;
53702;Laerm;39594;52.194;9.886;2023-03-01T01:03:44;40.04;35.94;42.76;;
53702;Laerm;39594;52.194;9.886;2023-03-01T01:06:14;51.13;36.91;70.12;;
53702;Laerm;39594;52.194;9.886;2023-03-01T01:08:39;40.22;35.94;43.14;;
53702;Laerm;39594;52.194;9.886;2023-03-01T01:11:14;40.96;37.52;43.58;;
53702;Laerm;39594;52.194;9.886;2023-03-01T01:13:40;40.58;36.69;43.04;;
53702;Laerm;39594;52.194;9.886;2023-03-01T01:16:05;40.42;37.12;42.82;;
53702;Laerm;39594;52.194;9.886;2023-03-01T01:18:33;49.48;37.12;67.09;;
53702;Laerm;39594;52.194;9.886;2023-03-01T01:21:05;59.54;37.17;77.38;;
53702;Laerm;39594;52.194;9.886;2023-03-01T01:23:34;40.65;37.12;42.93;;
53702;Laerm;39594;52.194;9.886;2023-03-01T01:26:13;40.49;36.91;42.59;;
53702;Laerm;39594;52.194;9.886;2023-03-01T01:28:41;40.82;36.69;42.93;;
53702;Laerm;39594;52.194;9.886;2023-03-01T01:31:16;41.15;37.70;47.00;;
53702;Laerm;39594;52.194;9.886;2023-03-01T01:33:42;41.05;36.69;45.20;;
53702;Laerm;39594;52.194;9.886;2023-03-01T01:36:23;40.78;37.52;43.72;;
53702;Laerm;39594;52.194;9.886;2023-03-01T01:38:54;41.07;37.70;43.49;;
53702;Laerm;39594;52.194;9.886;2023-03-01T01:41:29;53.30;37.88;71.78;;
53702;Laerm;39594;52.194;9.886;2023-03-01T01:53:25;40.85;37.32;48.99;;
53702;Laerm;39594;52.194;9.886;2023-03-01T01:56:17;40.50;36.45;42.65;;
53702;Laerm;39594;52.194;9.886;2023-03-01T01:58:54;52.49;37.12;70.80;;
53702;Laerm;39594;52.194;9.886;2023-03-01T02:01:41;40.63;37.12;46.30;;
53702;Laerm;39594;52.194;9.886;2023-03-01T02:10:32;40.89;37.12;43.14;;
53702;Laerm;39594;52.194;9.886;2023-03-01T02:12:40;40.82;37.52;43.14;;
53702;Laerm;39594;52.194;9.886;2023-03-01T02:15:05;41.06;38.05;43.14;;
53702;Laerm;39594;52.194;9.886;2023-03-01T02:17:30;40.91;37.32;43.58;;
53702;Laerm;39594;52.194;9.886;2023-03-01T02:20:33;40.70;37.12;42.98;;
53702;Laerm;39594;52.194;9.886;2023-03-01T02:22:56;40.72;37.52;45.86;;
53702;Laerm;39594;52.194;9.886;2023-03-01T02:28:26;55.49;38.21;73.99;;
53702;Laerm;39594;52.194;9.886;2023-03-01T02:37:15;41.09;37.88;42.98;;
53702;Laerm;39594;52.194;9.886;2023-03-01T02:39:48;41.06;37.52;43.29;;
53702;Laerm;39594;52.194;9.886;2023-03-01T02:42:28;41.37;37.52;45.73;;
53702;Laerm;39594;52.194;9.886;2023-03-01T02:45:07;50.33;38.67;67.31;;
53702;Laerm;39594;52.194;9.886;2023-03-01T02:56:20;50.60;38.05;67.61;;
53702;Laerm;39594;52.194;9.886;2023-03-01T02:58:48;41.82;38.52;44.15;;
53702;Laerm;39594;52.194;9.886;2023-03-01T03:01:34;41.48;38.67;43.94;;
53702;Laerm;39594;52.194;9.886;2023-03-01T03:04:06;53.96;38.52;71.16;;
53702;Laerm;39594;52.194;9.886;2023-03-01T03:06:32;44.09;38.52;63.08;;
53702;Laerm;39594;52.194;9.886;2023-03-01T03:08:57;58.67;39.58;75.95;;
53702;Laerm;39594;52.194;9.886;2023-03-01T03:11:23;41.77;37.88;49.85;;
53702;Laerm;39594;52.194;9.886;2023-03-01T03:13:51;55.02;39.34;70.81;;
53702;Laerm;39594;52.194;9.886;2023-03-01T03:16:17;50.95;38.52;68.45;;
53702;Laerm;39594;52.194;9.886;2023-03-01T03:18:45;55.53;38.67;75.58;;
53702;Laerm;39594;52.194;9.886;2023-03-01T03:21:11;41.46;38.37;43.90;;
53702;Laerm;39594;52.194;9.886;2023-03-01T03:23:36;41.15;38.21;43.29;;
53702;Laerm;39594;52.194;9.886;2023-03-01T03:26:05;60.27;39.08;78.58;;
53702;Laerm;39594;52.194;9.886;2023-03-01T03:28:34;51.31;39.08;69.68;;
53702;Laerm;39594;52.194;9.886;2023-03-01T03:31:00;41.51;38.21;44.27;;
53702;Laerm;39594;52.194;9.886;2023-03-01T03:33:29;42.02;38.95;44.27;;
53702;Laerm;39594;52.194;9.886;2023-03-01T03:35:57;42.37;39.21;46.43;;
53702;Laerm;39594;52.194;9.886;2023-03-01T03:38:34;57.59;40.03;71.88;;
53702;Laerm;39594;52.194;9.886;2023-03-01T03:41:03;52.31;39.08;72.83;;
53702;Laerm;39594;52.194;9.886;2023-03-01T03:43:33;55.67;39.21;72.16;;
53702;Laerm;39594;52.194;9.886;2023-03-01T03:46:01;57.41;39.58;71.59;;
53702;Laerm;39594;52.194;9.886;2023-03-01T03:48:34;54.37;39.34;72.06;;
53702;Laerm;39594;52.194;9.886;2023-03-01T03:51:03;60.60;40.23;77.44;;
53702;Laerm;39594;52.194;9.886;2023-03-01T03:53:32;53.60;39.08;72.11;;
53702;Laerm;39594;52.194;9.886;2023-03-01T03:56:00;57.39;39.70;76.48;;
53702;Laerm;39594;52.194;9.886;2023-03-01T03:58:25;51.34;39.21;67.88;;
53702;Laerm;39594;52.194;9.886;2023-03-01T04:00:57;54.05;39.21;73.58;;
53702;Laerm;39594;52.194;9.886;2023-03-01T04:03:23;57.31;39.70;72.58;;
53702;Laerm;39594;52.194;9.886;2023-03-01T04:05:49;42.39;39.70;47.74;;
53702;Laerm;39594;52.194;9.886;2023-03-01T04:08:21;57.98;40.33;72.65;;
53702;Laerm;39594;52.194;9.886;2023-03-01T04:11:03;62.12;41.30;77.62;;
53702;Laerm;39594;52.194;9.886;2023-03-01T04:13:49;56.68;40.13;72.96;;
53702;Laerm;39594;52.194;9.886;2023-03-01T04:16:24;61.47;40.88;76.93;;
53702;Laerm;39594;52.194;9.886;2023-03-01T04:19:12;60.39;40.89;75.48;;
53702;Laerm;39594;52.194;9.886;2023-03-01T04:21:40;60.42;41.61;72.94;;
53702;Laerm;39594;52.194;9.886;2023-03-01T04:24:18;61.37;41.06;76.63;;
53702;Laerm;39594;52.194;9.886;2023-03-01T04:26:49;59.28;39.58;72.65;;
53702;Laerm;39594;52.194;9.886;2023-03-01T04:29:18;63.62;40.98;79.39;;
53702;Laerm;39594;52.194;9.886;2023-03-01T04:31:47;61.16;41.53;76.79;;
53702;Laerm;39594;52.194;9.886;2023-03-01T04:34:14;61.10;40.80;74.61;;
53702;Laerm;39594;52.194;9.886;2023-03-01T04:36:39;63.12;41.22;78.22;;
53702;Laerm;39594;52.194;9.886;2023-03-01T04:39:09;61.09;40.71;73.92;;
53702;Laerm;39594;52.194;9.886;2023-03-01T04:44:44;61.42;41.14;73.70;;
53702;Laerm;39594;52.194;9.886;2023-03-01T04:47:19;63.16;41.30;75.28;;
53702;Laerm;39594;52.194;9.886;2023-03-01T04:49:55;63.20;42.47;76.93;;
53702;Laerm;39594;52.194;9.886;2023-03-01T04:52:23;62.28;41.38;74.50;;
53702;Laerm;39594;52.194;9.886;2023-03-01T04:55:01;60.95;41.22;72.73;;
53702;Laerm;39594;52.194;9.886;2023-03-01T04:57:55;63.57;40.53;75.50;;
53702;Laerm;39594;52.194;9.886;2023-03-01T05:00:29;60.56;40.80;73.06;;
53702;Laerm;39594;52.194;9.886;2023-03-01T05:03:23;60.80;40.53;76.23;;
53702;Laerm;39594;52.194;9.886;2023-03-01T05:05:54;61.35;40.53;74.40;;
53702;Laerm;39594;52.194;9.886;2023-03-01T05:08:32;61.71;40.43;72.36;;
53702;Laerm;39594;52.194;9.886;2023-03-01T05:11:08;61.25;40.13;78.35;;
53702;Laerm;39594;52.194;9.886;2023-03-01T05:17:03;62.38;42.22;73.81;;
53702;Laerm;39594;52.194;9.886;2023-03-01T05:19:49;62.10;41.96;75.72;;
53702;Laerm;39594;52.194;9.886;2023-03-01T05:22:17;63.37;43.49;73.92;;
53702;Laerm;39594;52.194;9.886;2023-03-01T05:25:01;61.23;42.53;72.15;;
53702;Laerm;39594;52.194;9.886;2023-03-01T05:27:32;65.53;42.76;82.82;;
53702;Laerm;39594;52.194;9.886;2023-03-01T05:30:03;65.70;42.76;78.43;;
53702;Laerm;39594;52.194;9.886;2023-03-01T05:35:48;64.35;42.29;73.98;;
53702;Laerm;39594;52.194;9.886;2023-03-01T05:38:30;65.19;43.94;76.68;;
53702;Laerm;39594;52.194;9.886;2023-03-01T05:41:19;63.84;43.09;72.61;;
53702;Laerm;39594;52.194;9.886;2023-03-01T05:43:54;66.17;43.63;75.30;;
53702;Laerm;39594;52.194;9.886;2023-03-01T05:46:40;62.08;42.29;75.23;;
53702;Laerm;39594;52.194;9.886;2023-03-01T05:49:15;64.17;42.35;73.72;;
53702;Laerm;39594;52.194;9.886;2023-03-01T05:51:52;65.51;42.98;76.70;;
53702;Laerm;39594;52.194;9.886;2023-03-01T05:54:21;64.03;42.82;77.30;;
53702;Laerm;39594;52.194;9.886;2023-03-01T05:56:52;66.17;42.53;78.30;;
53702;Laerm;39594;52.194;9.886;2023-03-01T05:59:30;66.61;43.37;80.81;;
53702;Laerm;39594;52.194;9.886;2023-03-01T06:02:00;64.50;43.29;78.80;;
53702;Laerm;39594;52.194;9.886;2023-03-01T06:04:28;67.31;44.39;78.36;;
53702;Laerm;39594;52.194;9.886;2023-03-01T06:06:59;66.22;44.03;76.50;;
53702;Laerm;39594;52.194;9.886;2023-03-01T06:09:27;63.49;43.34;74.14;;
53702;Laerm;39594;52.194;9.886;2023-03-01T06:11:56;64.54;44.23;77.39;;
53702;Laerm;39594;52.194;9.886;2023-03-01T06:14:21;63.36;43.28;75.55;;
53702;Laerm;39594;52.194;9.886;2023-03-01T06:16:55;64.99;43.49;80.20;;
53702;Laerm;39594;52.194;9.886;2023-03-01T06:19:26;69.03;45.36;80.46;;
53702;Laerm;39594;52.194;9.886;2023-03-01T06:22:04;66.70;46.45;78.10;;
53702;Laerm;39594;52.194;9.886;2023-03-01T06:24:33;67.47;44.27;79.51;;
53702;Laerm;39594;52.194;9.886;2023-03-01T06:27:01;67.17;48.52;76.36;;
53702;Laerm;39594;52.194;9.886;2023-03-01T06:29:27;65.73;45.66;77.57;;
53702;Laerm;39594;52.194;9.886;2023-03-01T06:31:52;67.65;43.58;77.69;;
53702;Laerm;39594;52.194;9.886;2023-03-01T06:34:18;67.55;43.09;84.93;;
53702;Laerm;39594;52.194;9.886;2023-03-01T06:36:51;66.89;44.39;89.59;;
53702;Laerm;39594;52.194;9.886;2023-03-01T06:39:16;69.04;45.51;81.20;;
53702;Laerm;39594;52.194;9.886;2023-03-01T06:41:43;67.01;44.76;79.26;;
53702;Laerm;39594;52.194;9.886;2023-03-01T06:44:08;67.65;46.35;81.47;;
53702;Laerm;39594;52.194;9.886;2023-03-01T06:46:36;66.20;44.65;82.06;;
53702;Laerm;39594;52.194;9.886;2023-03-01T06:49:01;66.97;45.01;82.40;;
53702;Laerm;39594;52.194;9.886;2023-03-01T06:51:32;66.37;43.81;80.46;;
53702;Laerm;39594;52.194;9.886;2023-03-01T06:54:00;67.54;43.93;80.67;;
53702;Laerm;39594;52.194;9.886;2023-03-01T06:56:26;66.87;43.34;81.66;;
53702;Laerm;39594;52.194;9.886;2023-03-01T06:58:59;63.58;43.24;73.21;;
53702;Laerm;39594;52.194;9.886;2023-03-01T07:01:31;67.43;44.97;81.87;;
53702;Laerm;39594;52.194;9.886;2023-03-01T07:03:59;66.40;43.49;76.85;;
53702;Laerm;39594;52.194;9.886;2023-03-01T07:06:30;67.76;43.29;80.06;;
53702;Laerm;39594;52.194;9.886;2023-03-01T07:08:55;66.02;44.31;81.51;;
53702;Laerm;39594;52.194;9.886;2023-03-01T07:11:21;67.02;42.98;79.63;;
53702;Laerm;39594;52.194;9.886;2023-03-01T07:13:46;66.35;44.73;81.14;;
53702;Laerm;39594;52.194;9.886;2023-03-01T07:16:11;66.95;44.69;81.01;;
53702;Laerm;39594;52.194;9.886;2023-03-01T07:18:36;65.63;43.54;80.89;;
53702;Laerm;39594;52.194;9.886;2023-03-01T07:21:05;64.86;43.19;82.26;;
53702;Laerm;39594;52.194;9.886;2023-03-01T07:23:31;68.66;42.98;86.60;;
53702;Laerm;39594;52.194;9.886;2023-03-01T07:25:56;65.65;42.74;81.80;;
53702;Laerm;39594;52.194;9.886;2023-03-01T07:28:24;63.63;42.65;81.19;;
53702;Laerm;39594;52.194;9.886;2023-03-01T07:30:49;64.80;42.98;80.48;;
53702;Laerm;39594;52.194;9.886;2023-03-01T07:33:15;66.57;43.34;82.06;;
53702;Laerm;39594;52.194;9.886;2023-03-01T07:35:40;66.28;42.35;82.07;;
53702;Laerm;39594;52.194;9.886;2023-03-01T07:38:05;65.27;42.47;80.06;;
53702;Laerm;39594;52.194;9.886;2023-03-01T07:40:30;64.11;42.88;73.90;;
53702;Laerm;39594;52.194;9.886;2023-03-01T07:42:56;65.89;42.29;78.82;;
53702;Laerm;39594;52.194;9.886;2023-03-01T07:45:21;67.26;43.46;82.93;;
53702;Laerm;39594;52.194;9.886;2023-03-01T07:47:46;64.17;42.24;79.84;;
53702;Laerm;39594;52.194;9.886;2023-03-01T07:50:11;64.95;41.82;76.44;;
53702;Laerm;39594;52.194;9.886;2023-03-01T07:52:38;66.32;42.88;80.26;;
53702;Laerm;39594;52.194;9.886;2023-03-01T07:55:03;66.86;44.03;81.85;;
53702;Laerm;39594;52.194;9.886;2023-03-01T07:57:28;64.28;43.58;76.54;;
53702;Laerm;39594;52.194;9.886;2023-03-01T07:59:53;65.60;43.04;84.19;;
53702;Laerm;39594;52.194;9.886;2023-03-01T08:02:19;64.56;42.82;78.69;;
53702;Laerm;39594;52.194;9.886;2023-03-01T08:04:44;61.14;42.35;73.07;;
53702;Laerm;39594;52.194;9.886;2023-03-01T08:07:09;67.42;41.89;83.26;;
53702;Laerm;39594;52.194;9.886;2023-03-01T08:09:34;58.50;42.03;79.52;;
53702;Laerm;39594;52.194;9.886;2023-03-01T08:12:00;67.01;42.41;86.49;;
53702;Laerm;39594;52.194;9.886;2023-03-01T08:14:25;67.72;43.14;84.73;;
53702;Laerm;39594;52.194;9.886;2023-03-01T08:16:51;66.57;42.16;81.95;;
53702;Laerm;39594;52.194;9.886;2023-03-01T08:19:16;58.46;41.46;73.30;;
53702;Laerm;39594;52.194;9.886;2023-03-01T08:21:42;64.90;41.96;81.88;;
53702;Laerm;39594;52.194;9.886;2023-03-01T08:24:07;66.21;42.53;83.79;;
53702;Laerm;39594;52.194;9.886;2023-03-01T08:26:32;59.13;42.09;71.46;;
53702;Laerm;39594;52.194;9.886;2023-03-01T08:28:59;65.45;41.82;79.58;;
53702;Laerm;39594;52.194;9.886;2023-03-01T08:31:25;66.49;43.72;78.63;;
53702;Laerm;39594;52.194;9.886;2023-03-01T08:33:54;60.93;42.16;76.97;;
53702;Laerm;39594;52.194;9.886;2023-03-01T08:36:22;62.64;41.38;76.11;;
53702;Laerm;39594;52.194;9.886;2023-03-01T08:38:48;63.04;42.03;82.39;;
53702;Laerm;39594;52.194;9.886;2023-03-01T08:41:13;65.24;40.98;79.60;;
53702;Laerm;39594;52.194;9.886;2023-03-01T08:43:39;61.99;40.53;80.13;;
53702;Laerm;39594;52.194;9.886;2023-03-01T08:46:04;63.54;42.16;82.37;;
53702;Laerm;39594;52.194;9.886;2023-03-01T08:48:29;66.24;43.94;79.39;;
53702;Laerm;39594;52.194;9.886;2023-03-01T08:50:55;68.13;43.72;79.99;;
53702;Laerm;39594;52.194;9.886;2023-03-01T08:53:20;66.50;41.75;80.06;;
53702;Laerm;39594;52.194;9.886;2023-03-01T08:55:45;60.09;40.98;77.20;;
53702;Laerm;39594;52.194;9.886;2023-03-01T08:58:11;61.87;40.89;78.06;;
53702;Laerm;39594;52.194;9.886;2023-03-01T09:00:36;65.58;40.71;80.62;;
53702;Laerm;39594;52.194;9.886;2023-03-01T09:03:01;63.32;41.30;81.80;;
53702;Laerm;39594;52.194;9.886;2023-03-01T09:05:26;62.02;41.68;78.90;;
53702;Laerm;39594;52.194;9.886;2023-03-01T09:07:52;63.62;40.98;78.86;;
53702;Laerm;39594;52.194;9.886;2023-03-01T09:10:17;64.27;41.30;79.75;;
53702;Laerm;39594;52.194;9.886;2023-03-01T09:12:43;64.01;41.53;80.34;;
53702;Laerm;39594;52.194;9.886;2023-03-01T09:15:08;61.15;41.14;73.32;;
53702;Laerm;39594;52.194;9.886;2023-03-01T09:17:33;63.75;41.46;77.17;;
53702;Laerm;39594;52.194;9.886;2023-03-01T09:19:58;63.88;40.53;78.40;;
53702;Laerm;39594;52.194;9.886;2023-03-01T09:22:25;63.85;42.22;81.58;;
53702;Laerm;39594;52.194;9.886;2023-03-01T09:24:50;64.72;42.53;79.69;;
53702;Laerm;39594;52.194;9.886;2023-03-01T09:27:16;66.77;43.24;79.26;;
53702;Laerm;39594;52.194;9.886;2023-03-01T09:29:43;66.47;41.38;82.36;;
53702;Laerm;39594;52.194;9.886;2023-03-01T09:32:08;62.42;41.30;80.58;;
53702;Laerm;39594;52.194;9.886;2023-03-01T09:34:34;60.37;41.89;72.33;;
53702;Laerm;39594;52.194;9.886;2023-03-01T09:37:19;67.43;41.38;82.43;;
53702;Laerm;39594;52.194;9.886;2023-03-01T09:39:44;60.50;41.89;76.02;;
53702;Laerm;39594;52.194;9.886;2023-03-01T09:42:10;62.48;39.34;78.00;;
53702;Laerm;39594;52.194;9.886;2023-03-01T09:44:45;61.91;40.33;79.69;;
53702;Laerm;39594;52.194;9.886;2023-03-01T09:47:15;68.08;42.29;81.29;;
53702;Laerm;39594;52.194;9.886;2023-03-01T09:49:42;67.13;41.38;81.51;;
53702;Laerm;39594;52.194;9.886;2023-03-01T09:52:28;64.63;40.71;80.45;;
53702;Laerm;39594;52.194;9.886;2023-03-01T09:54:55;63.71;39.21;79.50;;
53702;Laerm;39594;52.194;9.886;2023-03-01T10:00:11;65.20;38.52;81.81;;
53702;Laerm;39594;52.194;9.886;2023-03-01T10:02:41;57.82;38.37;73.43;;
53702;Laerm;39594;52.194;9.886;2023-03-01T10:10:36;60.86;39.58;78.95;;
53702;Laerm;39594;52.194;9.886;2023-03-01T10:15:57;63.78;38.52;85.45;;
53702;Laerm;39594;52.194;9.886;2023-03-01T10:18:26;64.45;40.03;77.41;;
53702;Laerm;39594;52.194;9.886;2023-03-01T10:20:53;61.16;39.70;77.08;;
53702;Laerm;39594;52.194;9.886;2023-03-01T10:23:22;64.84;39.08;79.22;;
53702;Laerm;39594;52.194;9.886;2023-03-01T10:25:51;62.85;38.05;83.07;;
53702;Laerm;39594;52.194;9.886;2023-03-01T10:28:37;60.20;38.52;76.09;;
53702;Laerm;39594;52.194;9.886;2023-03-01T10:31:05;61.25;38.37;73.13;;
53702;Laerm;39594;52.194;9.886;2023-03-01T10:33:37;63.65;38.05;78.44;;
53702;Laerm;39594;52.194;9.886;2023-03-01T10:36:04;64.37;38.52;81.98;;
53702;Laerm;39594;52.194;9.886;2023-03-01T10:38:30;58.52;38.67;71.04;;
53702;Laerm;39594;52.194;9.886;2023-03-01T10:40:57;63.11;39.70;75.36;;
53702;Laerm;39594;52.194;9.886;2023-03-01T10:43:23;62.00;39.21;76.09;;
53702;Laerm;39594;52.194;9.886;2023-03-01T10:45:49;64.23;41.14;75.04;;
53702;Laerm;39594;52.194;9.886;2023-03-01T10:48:15;62.18;37.88;80.97;;
53702;Laerm;39594;52.194;9.886;2023-03-01T10:50:41;59.12;37.12;72.49;;
53702;Laerm;39594;52.194;9.886;2023-03-01T10:53:16;65.19;39.92;78.03;;
53702;Laerm;39594;52.194;9.886;2023-03-01T10:55:44;56.50;40.62;70.10;;
53702;Laerm;39594;52.194;9.886;2023-03-01T10:58:20;62.61;40.89;80.35;;
53702;Laerm;39594;52.194;9.886;2023-03-01T11:03:12;60.84;37.52;71.52;;
53702;Laerm;39594;52.194;9.886;2023-03-01T11:05:50;62.72;37.32;78.38;;
53702;Laerm;39594;52.194;9.886;2023-03-01T11:08:15;60.95;39.34;71.19;;
53702;Laerm;39594;52.194;9.886;2023-03-01T11:10:59;63.10;39.92;76.87;;
53702;Laerm;39594;52.194;9.886;2023-03-01T11:13:28;62.53;36.45;78.22;;
53702;Laerm;39594;52.194;9.886;2023-03-01T11:16:06;64.74;36.45;78.29;;
53702;Laerm;39594;52.194;9.886;2023-03-01T11:18:34;62.79;41.38;77.12;;
53702;Laerm;39594;52.194;9.886;2023-03-01T11:20:59;61.37;38.95;74.06;;
53702;Laerm;39594;52.194;9.886;2023-03-01T11:23:27;58.51;38.52;71.48;;
53702;Laerm;39594;52.194;9.886;2023-03-01T11:26:00;62.70;36.69;78.45;;
53702;Laerm;39594;52.194;9.886;2023-03-01T11:28:27;64.37;39.92;80.19;;
53702;Laerm;39594;52.194;9.886;2023-03-01T11:30:55;62.27;36.20;78.01;;
53702;Laerm;39594;52.194;9.886;2023-03-01T11:33:33;65.98;40.13;80.05;;
53702;Laerm;39594;52.194;9.886;2023-03-01T11:38:28;59.14;41.53;68.98;;
53702;Laerm;39594;52.194;9.886;2023-03-01T11:51:05;62.52;40.71;71.34;;
53702;Laerm;39594;52.194;9.886;2023-03-01T11:56:03;62.61;42.03;78.46;;
53702;Laerm;39594;52.194;9.886;2023-03-01T11:58:35;63.27;38.52;78.90;;
53702;Laerm;39594;52.194;9.886;2023-03-01T12:06:09;60.52;38.21;72.99;;
53702;Laerm;39594;52.194;9.886;2023-03-01T12:08:41;63.41;37.12;75.53;;
53702;Laerm;39594;52.194;9.886;2023-03-01T12:29:33;61.97;39.08;73.41;;
53702;Laerm;39594;52.194;9.886;2023-03-01T12:34:50;62.80;40.33;77.09;;
53702;Laerm;39594;52.194;9.886;2023-03-01T12:40:05;63.00;39.08;78.40;;
53702;Laerm;39594;52.194;9.886;2023-03-01T12:51:14;64.83;40.98;79.86;;
53702;Laerm;39594;52.194;9.886;2023-03-01T12:53:44;62.52;38.32;75.87;;
53702;Laerm;39594;52.194;9.886;2023-03-01T12:56:11;63.71;38.05;77.77;;
53702;Laerm;39594;52.194;9.886;2023-03-01T12:59:23;62.69;36.91;75.61;;
53702;Laerm;39594;52.194;9.886;2023-03-01T13:09:14;65.59;39.58;83.71;;
53702;Laerm;39594;52.194;9.886;2023-03-01T13:11:43;63.57;38.37;78.30;;
53702;Laerm;39594;52.194;9.886;2023-03-01T13:16:46;64.56;44.39;77.69;;
53702;Laerm;39594;52.194;9.886;2023-03-01T13:21:40;64.70;39.21;79.82;;
53702;Laerm;39594;52.194;9.886;2023-03-01T13:24:22;62.22;40.33;77.84;;
53702;Laerm;39594;52.194;9.886;2023-03-01T13:29:44;63.14;39.21;78.73;;
53702;Laerm;39594;52.194;9.886;2023-03-01T13:32:26;63.66;40.89;77.59;;
53702;Laerm;39594;52.194;9.886;2023-03-01T13:34:57;63.80;40.80;78.68;;
53702;Laerm;39594;52.194;9.886;2023-03-01T13:37:25;59.54;38.52;72.76;;
53702;Laerm;39594;52.194;9.886;2023-03-01T13:39:55;64.47;41.14;78.10;;
53702;Laerm;39594;52.194;9.886;2023-03-01T13:42:40;59.23;38.37;71.22;;
53702;Laerm;39594;52.194;9.886;2023-03-01T13:47:54;62.62;36.20;75.79;;
53702;Laerm;39594;52.194;9.886;2023-03-01T13:50:23;61.90;38.37;75.94;;
53702;Laerm;39594;52.194;9.886;2023-03-01T13:52:53;63.72;39.92;79.13;;
53702;Laerm;39594;52.194;9.886;2023-03-01T13:55:25;64.01;39.08;79.63;;
53702;Laerm;39594;52.194;9.886;2023-03-01T13:57:53;61.45;38.37;73.34;;
53702;Laerm;39594;52.194;9.886;2023-03-01T14:03:01;61.59;40.98;73.53;;
53702;Laerm;39594;52.194;9.886;2023-03-01T14:05:27;62.09;39.81;73.32;;
53702;Laerm;39594;52.194;9.886;2023-03-01T14:07:53;62.07;38.95;72.89;;
53702;Laerm;39594;52.194;9.886;2023-03-01T14:10:19;62.90;43.09;71.52;;
53702;Laerm;39594;52.194;9.886;2023-03-01T14:20:01;63.08;40.13;75.47;;
53702;Laerm;39594;52.194;9.886;2023-03-01T14:22:30;65.42;43.44;78.36;;
53702;Laerm;39594;52.194;9.886;2023-03-01T14:25:01;65.06;39.92;78.87;;
53702;Laerm;39594;52.194;9.886;2023-03-01T14:27:28;58.91;39.81;70.67;;
53702;Laerm;39594;52.194;9.886;2023-03-01T14:30:02;65.07;38.05;77.54;;
53702;Laerm;39594;52.194;9.886;2023-03-01T14:32:29;64.59;42.35;75.54;;
53702;Laerm;39594;52.194;9.886;2023-03-01T14:34:54;62.43;39.92;73.03;;
53702;Laerm;39594;52.194;9.886;2023-03-01T14:39:54;61.82;41.53;70.89;;
53702;Laerm;39594;52.194;9.886;2023-03-01T14:42:20;61.79;39.81;73.86;;
53702;Laerm;39594;52.194;9.886;2023-03-01T14:44:47;62.87;40.33;77.85;;
53702;Laerm;39594;52.194;9.886;2023-03-01T14:47:14;61.57;40.03;72.54;;
53702;Laerm;39594;52.194;9.886;2023-03-01T14:49:40;60.74;41.94;72.19;;
53702;Laerm;39594;52.194;9.886;2023-03-01T14:52:07;62.28;41.53;71.65;;
53702;Laerm;39594;52.194;9.886;2023-03-01T14:54:42;64.30;40.62;75.76;;
53702;Laerm;39594;52.194;9.886;2023-03-01T14:57:19;62.26;38.81;73.14;;
53702;Laerm;39594;52.194;9.886;2023-03-01T14:59:44;63.95;40.89;73.92;;
53702;Laerm;39594;52.194;9.886;2023-03-01T15:02:13;63.75;40.89;73.13;;
53702;Laerm;39594;52.194;9.886;2023-03-01T15:04:41;62.93;44.11;71.95;;
53702;Laerm;39594;52.194;9.886;2023-03-01T15:07:09;62.27;38.95;71.31;;
53702;Laerm;39594;52.194;9.886;2023-03-01T15:09:37;64.66;37.32;76.00;;
53702;Laerm;39594;52.194;9.886;2023-03-01T15:12:23;64.30;42.42;76.56;;
53702;Laerm;39594;52.194;9.886;2023-03-01T15:14:47;62.83;41.96;71.74;;
53702;Laerm;39594;52.194;9.886;2023-03-01T15:19:48;59.40;39.11;71.43;;
53702;Laerm;39594;52.194;9.886;2023-03-01T15:22:14;64.31;37.53;77.06;;
53702;Laerm;39594;52.194;9.886;2023-03-01T15:24:40;61.28;41.82;71.08;;
53702;Laerm;39594;52.194;9.886;2023-03-01T15:27:12;63.22;40.80;73.15;;
53702;Laerm;39594;52.194;9.886;2023-03-01T15:29:39;62.11;40.62;73.77;;
53702;Laerm;39594;52.194;9.886;2023-03-01T15:32:20;63.92;44.23;73.44;;
53702;Laerm;39594;52.194;9.886;2023-03-01T15:34:48;60.38;40.43;70.07;;
53702;Laerm;39594;52.194;9.886;2023-03-01T15:39:58;64.28;41.06;75.45;;
53702;Laerm;39594;52.194;9.886;2023-03-01T15:45:06;61.74;41.68;72.21;;
53702;Laerm;39594;52.194;9.886;2023-03-01T15:47:32;63.50;41.22;72.62;;
53702;Laerm;39594;52.194;9.886;2023-03-01T15:49:59;62.54;43.77;72.55;;
53702;Laerm;39594;52.194;9.886;2023-03-01T15:52:29;61.72;40.98;72.93;;
53702;Laerm;39594;52.194;9.886;2023-03-01T15:54:59;63.89;40.23;79.15;;
53702;Laerm;39594;52.194;9.886;2023-03-01T15:57:26;63.12;43.29;72.53;;
53702;Laerm;39594;52.194;9.886;2023-03-01T15:59:51;64.10;42.65;76.78;;
53702;Laerm;39594;52.194;9.886;2023-03-01T16:02:16;64.14;41.89;79.06;;
53702;Laerm;39594;52.194;9.886;2023-03-01T16:04:41;63.28;40.62;75.38;;
53702;Laerm;39594;52.194;9.886;2023-03-01T16:07:08;62.67;40.23;71.72;;
53702;Laerm;39594;52.194;9.886;2023-03-01T16:09:34;61.28;40.80;70.48;;
53702;Laerm;39594;52.194;9.886;2023-03-01T16:12:00;61.42;38.21;71.09;;
53702;Laerm;39594;52.194;9.886;2023-03-01T16:14:26;63.69;39.99;78.76;;
53702;Laerm;39594;52.194;9.886;2023-03-01T16:16:51;58.01;39.58;70.03;;
53702;Laerm;39594;52.194;9.886;2023-03-01T16:19:16;60.68;43.09;70.57;;
53702;Laerm;39594;52.194;9.886;2023-03-01T16:21:42;60.67;42.29;70.22;;
53702;Laerm;39594;52.194;9.886;2023-03-01T16:24:08;60.76;40.33;73.22;;
53702;Laerm;39594;52.194;9.886;2023-03-01T16:26:34;61.02;39.81;70.24;;